createdAt,value
2022-08-18T00:35:13.713Z,3.213
2022-08-18T00:50:55.867Z,3.213
2022-08-18T01:06:38.094Z,3.213
2022-08-18T01:22:20.317Z,3.213
2022-08-18T01:38:02.380Z,3.213
2022-08-18T01:53:45.283Z,3.213
2022-08-18T02:09:34.331Z,3.213
2022-08-18T02:25:09.951Z,3.213
2022-08-18T02:56:34.619Z,3.213
2022-08-18T03:27:58.887Z,3.212
2022-08-18T03:43:41.559Z,3.213
2022-08-18T03:44:35.837Z,3.209
2022-08-18T04:15:53.254Z,3.213
2022-08-18T04:31:35.904Z,3.213
2022-08-18T04:47:17.976Z,3.212
2022-08-18T05:03:00.851Z,3.212
2022-08-18T05:18:43.121Z,3.213
2022-08-18T05:34:25.791Z,3.212
2022-08-18T05:50:08.213Z,3.213
2022-08-18T06:05:50.927Z,3.213
2022-08-18T06:21:33.117Z,3.213
2022-08-18T06:37:15.601Z,3.216
2022-08-18T06:52:57.586Z,3.218
2022-08-18T07:08:39.658Z,3.227
2022-08-18T07:24:21.786Z,3.231
2022-08-18T07:40:04.282Z,3.232
2022-08-18T07:55:46.458Z,3.234
2022-08-18T08:11:28.914Z,3.235
2022-08-18T08:27:11.533Z,3.239
2022-08-18T08:42:54.390Z,3.249
2022-08-18T08:58:37.087Z,3.31
2022-08-18T09:14:19.915Z,3.463
2022-08-18T09:30:02.184Z,3.431
2022-08-18T09:45:44.232Z,3.412
2022-08-18T10:01:27.050Z,3.395
2022-08-18T10:17:09.042Z,3.382
2022-08-18T10:32:51.772Z,3.368
2022-08-18T10:48:34.132Z,3.355
2022-08-18T11:04:16.714Z,3.346
2022-08-18T11:19:58.971Z,3.336
2022-08-18T11:35:41.444Z,3.326
2022-08-18T11:51:23.597Z,3.306
2022-08-18T12:07:05.605Z,3.297
2022-08-18T12:22:48.267Z,3.292
2022-08-18T12:38:30.992Z,3.285
2022-08-18T12:54:13.628Z,3.281
2022-08-18T13:09:55.766Z,3.274
2022-08-18T13:25:38.289Z,3.27
2022-08-18T13:41:21.110Z,3.264
2022-08-18T13:57:03.430Z,3.26
2022-08-18T14:12:46.030Z,3.254
2022-08-18T14:28:28.450Z,3.252
2022-08-18T14:44:10.689Z,3.285
2022-08-18T14:59:52.743Z,3.294
2022-08-18T15:15:35.024Z,3.314
2022-08-18T15:31:17.787Z,3.332
2022-08-18T15:47:00.305Z,3.31
2022-08-18T16:02:42.457Z,3.303
2022-08-18T16:18:25.023Z,3.294
2022-08-18T16:34:07.366Z,3.289
2022-08-18T16:49:50.301Z,3.282
2022-08-18T17:05:32.657Z,3.278
2022-08-18T17:21:15.612Z,3.272
2022-08-18T17:36:57.886Z,3.268
2022-08-18T17:52:39.975Z,3.265
2022-08-18T18:08:22.549Z,3.26
2022-08-18T18:24:04.827Z,3.259
2022-08-18T18:39:47.728Z,3.254
2022-08-18T18:55:30.395Z,3.25
2022-08-18T19:11:13.119Z,3.247
2022-08-18T19:26:55.343Z,3.246
2022-08-18T19:42:37.685Z,3.245
2022-08-18T19:58:19.868Z,3.241
2022-08-18T20:14:02.589Z,3.241
2022-08-18T20:29:45.449Z,3.239
2022-08-18T20:45:28.148Z,3.236
2022-08-18T21:48:18.082Z,3.235
2022-08-18T22:19:43.717Z,3.232
2022-08-18T22:35:26.418Z,3.231
2022-08-18T22:51:08.864Z,3.231
2022-08-18T23:06:51.457Z,3.229
2022-08-18T23:22:34.335Z,3.231
2022-08-18T23:38:16.331Z,3.231
2022-08-18T23:53:58.477Z,3.229
